sensor_id;sensor_type;location;lat;lon;timestamp;pressure;altitude;pressure_sealevel;temperature;humidity
41690;BME280;27372;42.658;23.256;2023-04-06T00:00:53;93521.63;;;-1.73;83.00
41690;BME280;27372;42.658;23.256;2023-04-06T00:03:19;93526.78;;;-1.64;82.72
41690;BME280;27372;42.658;23.256;2023-04-06T00:05:47;93530.66;;;-1.68;82.74
41690;BME280;27372;42.658;23.256;2023-04-06T00:08:13;93512.78;;;-1.70;82.05
41690;BME280;27372;42.658;23.256;2023-04-06T00:10:38;93507.78;;;-1.63;81.64
41690;BME280;27372;42.658;23.256;2023-04-06T00:13:05;93508.25;;;-1.60;81.40
41690;BME280;27372;42.658;23.256;2023-04-06T00:15:31;93510.19;;;-1.62;80.69
41690;BME280;27372;42.658;23.256;2023-04-06T00:17:56;93499.56;;;-1.67;81.53
41690;BME280;27372;42.658;23.256;2023-04-06T00:20:22;93492.84;;;-1.68;81.44
41690;BME280;27372;42.658;23.256;2023-04-06T00:22:47;93485.84;;;-1.59;80.85
41690;BME280;27372;42.658;23.256;2023-04-06T00:25:13;93502.91;;;-1.58;80.40
41690;BME280;27372;42.658;23.256;2023-04-06T00:27:40;93477.53;;;-1.69;80.91
41690;BME280;27372;42.658;23.256;2023-04-06T00:30:06;93497.94;;;-1.60;81.74
41690;BME280;27372;42.658;23.256;2023-04-06T00:32:32;93487.38;;;-1.73;81.95
41690;BME280;27372;42.658;23.256;2023-04-06T00:34:58;93498.13;;;-1.69;82.30
41690;BME280;27372;42.658;23.256;2023-04-06T00:37:23;93482.69;;;-1.69;82.95
41690;BME280;27372;42.658;23.256;2023-04-06T00:39:49;93479.00;;;-1.75;83.37
41690;BME280;27372;42.658;23.256;2023-04-06T00:42:17;93475.63;;;-1.76;83.52
41690;BME280;27372;42.658;23.256;2023-04-06T00:44:50;93491.88;;;-1.75;83.88
41690;BME280;27372;42.658;23.256;2023-04-06T00:47:16;93483.13;;;-1.66;82.89
41690;BME280;27372;42.658;23.256;2023-04-06T00:49:41;93485.56;;;-1.64;83.31
41690;BME280;27372;42.658;23.256;2023-04-06T00:52:07;93488.28;;;-1.66;83.00
41690;BME280;27372;42.658;23.256;2023-04-06T00:54:33;93478.50;;;-1.70;83.13
41690;BME280;27372;42.658;23.256;2023-04-06T00:56:58;93480.94;;;-1.77;84.06
41690;BME280;27372;42.658;23.256;2023-04-06T00:59:24;93477.44;;;-1.84;83.75
41690;BME280;27372;42.658;23.256;2023-04-06T01:01:49;93464.22;;;-1.81;84.06
41690;BME280;27372;42.658;23.256;2023-04-06T01:04:15;93474.66;;;-1.75;84.00
41690;BME280;27372;42.658;23.256;2023-04-06T01:06:40;93478.16;;;-1.67;84.30
41690;BME280;27372;42.658;23.256;2023-04-06T01:09:06;93480.78;;;-1.76;84.41
41690;BME280;27372;42.658;23.256;2023-04-06T01:11:31;93472.97;;;-1.59;84.08
41690;BME280;27372;42.658;23.256;2023-04-06T01:13:57;93477.84;;;-1.64;84.41
41690;BME280;27372;42.658;23.256;2023-04-06T01:16:23;93457.69;;;-1.61;83.97
41690;BME280;27372;42.658;23.256;2023-04-06T01:18:49;93472.84;;;-1.66;84.62
41690;BME280;27372;42.658;23.256;2023-04-06T01:21:15;93463.56;;;-1.75;84.00
41690;BME280;27372;42.658;23.256;2023-04-06T01:23:43;93456.13;;;-1.70;84.44
41690;BME280;27372;42.658;23.256;2023-04-06T01:26:09;93471.81;;;-1.57;84.17
41690;BME280;27372;42.658;23.256;2023-04-06T01:28:35;93457.38;;;-1.66;84.62
41690;BME280;27372;42.658;23.256;2023-04-06T01:31:02;93470.56;;;-1.61;84.38
41690;BME280;27372;42.658;23.256;2023-04-06T01:33:28;93456.50;;;-1.81;84.53
41690;BME280;27372;42.658;23.256;2023-04-06T01:35:53;93460.41;;;-1.62;84.13
41690;BME280;27372;42.658;23.256;2023-04-06T01:38:19;93456.78;;;-1.68;84.19
41690;BME280;27372;42.658;23.256;2023-04-06T01:40:44;93454.19;;;-1.68;84.40
41690;BME280;27372;42.658;23.256;2023-04-06T01:43:10;93450.38;;;-1.80;84.58
41690;BME280;27372;42.658;23.256;2023-04-06T01:45:35;93446.66;;;-1.78;84.52
41690;BME280;27372;42.658;23.256;2023-04-06T01:48:01;93449.25;;;-1.78;85.16
41690;BME280;27372;42.658;23.256;2023-04-06T01:50:26;93445.38;;;-1.82;85.11
41690;BME280;27372;42.658;23.256;2023-04-06T01:52:51;93446.28;;;-1.66;84.35
41690;BME280;27372;42.658;23.256;2023-04-06T01:55:17;93442.66;;;-1.80;84.77
41690;BME280;27372;42.658;23.256;2023-04-06T01:57:42;93427.03;;;-1.79;84.75
41690;BME280;27372;42.658;23.256;2023-04-06T02:00:08;93437.13;;;-1.69;84.84
41690;BME280;27372;42.658;23.256;2023-04-06T02:02:34;93431.69;;;-1.74;85.33
41690;BME280;27372;42.658;23.256;2023-04-06T02:05:00;93439.88;;;-1.70;85.22
41690;BME280;27372;42.658;23.256;2023-04-06T02:07:25;93439.06;;;-1.71;84.74
41690;BME280;27372;42.658;23.256;2023-04-06T02:09:54;93439.88;;;-1.70;85.34
41690;BME280;27372;42.658;23.256;2023-04-06T02:12:20;93430.84;;;-1.66;84.81
41690;BME280;27372;42.658;23.256;2023-04-06T02:14:45;93435.44;;;-1.53;85.36
41690;BME280;27372;42.658;23.256;2023-04-06T02:17:11;93428.53;;;-1.61;84.70
41690;BME280;27372;42.658;23.256;2023-04-06T02:19:36;93421.78;;;-1.62;84.04
41690;BME280;27372;42.658;23.256;2023-04-06T02:22:02;93425.75;;;-1.75;84.23
41690;BME280;27372;42.658;23.256;2023-04-06T02:24:27;93444.88;;;-1.69;84.47
41690;BME280;27372;42.658;23.256;2023-04-06T02:26:53;93439.72;;;-1.77;84.77
41690;BME280;27372;42.658;23.256;2023-04-06T02:29:18;93433.63;;;-1.76;84.32
41690;BME280;27372;42.658;23.256;2023-04-06T02:31:44;93426.66;;;-1.67;83.99
41690;BME280;27372;42.658;23.256;2023-04-06T02:34:09;93430.25;;;-1.77;84.94
41690;BME280;27372;42.658;23.256;2023-04-06T02:36:37;93442.25;;;-1.61;84.78
41690;BME280;27372;42.658;23.256;2023-04-06T02:39:02;93434.22;;;-1.66;84.36
41690;BME280;27372;42.658;23.256;2023-04-06T02:41:28;93426.03;;;-1.69;84.18
41690;BME280;27372;42.658;23.256;2023-04-06T02:43:54;93430.72;;;-1.73;84.83
41690;BME280;27372;42.658;23.256;2023-04-06T02:46:19;93441.19;;;-1.75;84.75
41690;BME280;27372;42.658;23.256;2023-04-06T02:48:45;93435.59;;;-1.78;84.61
41690;BME280;27372;42.658;23.256;2023-04-06T02:51:10;93432.66;;;-1.75;85.32
41690;BME280;27372;42.658;23.256;2023-04-06T02:53:36;93439.81;;;-1.62;85.40
41690;BME280;27372;42.658;23.256;2023-04-06T02:56:01;93433.09;;;-1.63;84.24
41690;BME280;27372;42.658;23.256;2023-04-06T02:58:27;93440.38;;;-1.44;84.29
41690;BME280;27372;42.658;23.256;2023-04-06T03:00:52;93444.19;;;-1.63;84.79
41690;BME280;27372;42.658;23.256;2023-04-06T03:03:18;93451.72;;;-1.53;84.51
41690;BME280;27372;42.658;23.256;2023-04-06T03:05:43;93432.22;;;-1.56;85.07
41690;BME280;27372;42.658;23.256;2023-04-06T03:08:09;93442.31;;;-1.46;85.29
41690;BME280;27372;42.658;23.256;2023-04-06T03:10:35;93436.19;;;-1.45;85.62
41690;BME280;27372;42.658;23.256;2023-04-06T03:13:00;93452.56;;;-1.37;84.07
41690;BME280;27372;42.658;23.256;2023-04-06T03:15:26;93438.19;;;-1.55;84.27
41690;BME280;27372;42.658;23.256;2023-04-06T03:17:51;93426.34;;;-1.64;84.83
41690;BME280;27372;42.658;23.256;2023-04-06T03:20:17;93456.22;;;-1.55;85.08
41690;BME280;27372;42.658;23.256;2023-04-06T03:22:42;93445.59;;;-1.60;85.08
41690;BME280;27372;42.658;23.256;2023-04-06T03:25:08;93430.78;;;-1.58;84.92
41690;BME280;27372;42.658;23.256;2023-04-06T03:27:33;93437.81;;;-1.52;84.51
41690;BME280;27372;42.658;23.256;2023-04-06T03:29:58;93439.66;;;-1.61;84.77
41690;BME280;27372;42.658;23.256;2023-04-06T03:32:24;93436.28;;;-1.61;84.99
41690;BME280;27372;42.658;23.256;2023-04-06T03:34:49;93437.59;;;-1.65;85.11
41690;BME280;27372;42.658;23.256;2023-04-06T03:37:15;93438.06;;;-1.62;84.87
41690;BME280;27372;42.658;23.256;2023-04-06T03:39:40;93419.69;;;-1.59;85.02
41690;BME280;27372;42.658;23.256;2023-04-06T03:42:06;93440.13;;;-1.57;84.56
41690;BME280;27372;42.658;23.256;2023-04-06T03:44:31;93433.81;;;-1.54;84.57
41690;BME280;27372;42.658;23.256;2023-04-06T03:46:57;93428.53;;;-1.61;84.58
41690;BME280;27372;42.658;23.256;2023-04-06T03:49:22;93439.31;;;-1.58;83.79
41690;BME280;27372;42.658;23.256;2023-04-06T03:51:47;93441.50;;;-1.46;83.48
41690;BME280;27372;42.658;23.256;2023-04-06T03:54:13;93435.31;;;-1.60;83.84
41690;BME280;27372;42.658;23.256;2023-04-06T03:56:38;93437.50;;;-1.49;82.95
41690;BME280;27372;42.658;23.256;2023-04-06T03:59:04;93431.59;;;-1.58;82.96
41690;BME280;27372;42.658;23.256;2023-04-06T04:01:30;93423.00;;;-1.50;82.39
41690;BME280;27372;42.658;23.256;2023-04-06T04:03:55;93439.69;;;-1.37;81.94
41690;BME280;27372;42.658;23.256;2023-04-06T04:06:21;93427.78;;;-1.38;82.27
41690;BME280;27372;42.658;23.256;2023-04-06T04:08:46;93425.84;;;-1.36;82.31
41690;BME280;27372;42.658;23.256;2023-04-06T04:11:12;93434.19;;;-1.34;82.12
41690;BME280;27372;42.658;23.256;2023-04-06T04:13:37;93429.78;;;-1.26;82.04
41690;BME280;27372;42.658;23.256;2023-04-06T04:16:03;93424.84;;;-1.35;82.37
41690;BME280;27372;42.658;23.256;2023-04-06T04:18:28;93416.31;;;-1.36;82.39
41690;BME280;27372;42.658;23.256;2023-04-06T04:20:54;93430.75;;;-1.27;82.81
41690;BME280;27372;42.658;23.256;2023-04-06T04:23:19;93432.47;;;-1.19;82.51
41690;BME280;27372;42.658;23.256;2023-04-06T04:25:45;93428.41;;;-1.36;82.79
41690;BME280;27372;42.658;23.256;2023-04-06T04:28:10;93437.41;;;-1.32;82.51
41690;BME280;27372;42.658;23.256;2023-04-06T04:30:36;93438.25;;;-1.17;82.30
41690;BME280;27372;42.658;23.256;2023-04-06T04:33:01;93430.84;;;-1.20;81.87
41690;BME280;27372;42.658;23.256;2023-04-06T04:35:26;93428.91;;;-1.18;82.68
41690;BME280;27372;42.658;23.256;2023-04-06T04:37:52;93426.66;;;-1.13;81.75
41690;BME280;27372;42.658;23.256;2023-04-06T04:40:18;93434.72;;;-1.16;82.55
41690;BME280;27372;42.658;23.256;2023-04-06T04:42:43;93451.41;;;-1.12;81.58
41690;BME280;27372;42.658;23.256;2023-04-06T04:45:09;93445.13;;;-1.09;82.68
41690;BME280;27372;42.658;23.256;2023-04-06T04:47:34;93444.81;;;-0.91;81.79
41690;BME280;27372;42.658;23.256;2023-04-06T04:50:00;93428.69;;;-1.08;81.09
41690;BME280;27372;42.658;23.256;2023-04-06T04:52:25;93431.72;;;-1.04;81.29
41690;BME280;27372;42.658;23.256;2023-04-06T04:54:51;93432.13;;;-1.16;81.72
41690;BME280;27372;42.658;23.256;2023-04-06T04:57:16;93440.66;;;-0.92;81.43
41690;BME280;27372;42.658;23.256;2023-04-06T04:59:42;93439.06;;;-0.93;80.82
41690;BME280;27372;42.658;23.256;2023-04-06T05:02:08;93424.44;;;-1.01;81.21
41690;BME280;27372;42.658;23.256;2023-04-06T05:04:33;93420.06;;;-1.00;81.04
41690;BME280;27372;42.658;23.256;2023-04-06T05:07:06;93419.19;;;-1.07;81.71
41690;BME280;27372;42.658;23.256;2023-04-06T05:09:32;93446.44;;;-1.13;82.12
41690;BME280;27372;42.658;23.256;2023-04-06T05:11:59;93415.28;;;-1.03;81.72
41690;BME280;27372;42.658;23.256;2023-04-06T05:14:25;93421.78;;;-0.92;81.01
41690;BME280;27372;42.658;23.256;2023-04-06T05:16:50;93411.59;;;-0.86;81.54
41690;BME280;27372;42.658;23.256;2023-04-06T05:19:16;93416.47;;;-0.76;80.57
41690;BME280;27372;42.658;23.256;2023-04-06T05:21:42;93415.34;;;-0.73;80.07
41690;BME280;27372;42.658;23.256;2023-04-06T05:24:07;93417.69;;;-0.49;80.28
41690;BME280;27372;42.658;23.256;2023-04-06T05:26:33;93407.91;;;-0.38;79.21
41690;BME280;27372;42.658;23.256;2023-04-06T05:28:59;93421.88;;;-0.33;78.60
41690;BME280;27372;42.658;23.256;2023-04-06T05:31:25;93408.63;;;-0.44;79.10
41690;BME280;27372;42.658;23.256;2023-04-06T05:33:50;93425.97;;;-0.38;79.57
41690;BME280;27372;42.658;23.256;2023-04-06T05:36:16;93419.72;;;-0.44;79.07
41690;BME280;27372;42.658;23.256;2023-04-06T05:38:41;93409.78;;;-0.47;79.55
41690;BME280;27372;42.658;23.256;2023-04-06T05:41:07;93415.63;;;-0.53;79.58
41690;BME280;27372;42.658;23.256;2023-04-06T05:43:32;93408.63;;;-0.29;79.86
41690;BME280;27372;42.658;23.256;2023-04-06T05:45:58;93419.56;;;-0.42;79.22
41690;BME280;27372;42.658;23.256;2023-04-06T05:48:23;93419.13;;;-0.46;80.11
41690;BME280;27372;42.658;23.256;2023-04-06T05:50:49;93412.97;;;-0.45;81.65
41690;BME280;27372;42.658;23.256;2023-04-06T05:53:18;93411.19;;;-0.44;81.11
41690;BME280;27372;42.658;23.256;2023-04-06T05:55:43;93411.28;;;-0.23;79.96
41690;BME280;27372;42.658;23.256;2023-04-06T05:58:09;93409.50;;;-0.07;79.20
41690;BME280;27372;42.658;23.256;2023-04-06T06:00:35;93407.00;;;-0.16;80.06
41690;BME280;27372;42.658;23.256;2023-04-06T06:03:00;93407.16;;;0.13;79.05
41690;BME280;27372;42.658;23.256;2023-04-06T06:05:29;93410.25;;;0.23;78.86
41690;BME280;27372;42.658;23.256;2023-04-06T06:07:55;93410.13;;;-0.05;79.25
41690;BME280;27372;42.658;23.256;2023-04-06T06:10:20;93404.19;;;-0.21;79.34
41690;BME280;27372;42.658;23.256;2023-04-06T06:12:46;93405.69;;;-0.26;80.00
41690;BME280;27372;42.658;23.256;2023-04-06T06:15:11;93415.66;;;-0.23;79.99
41690;BME280;27372;42.658;23.256;2023-04-06T06:17:37;93410.38;;;-0.15;80.12
41690;BME280;27372;42.658;23.256;2023-04-06T06:20:07;93417.06;;;0.09;79.53
41690;BME280;27372;42.658;23.256;2023-04-06T06:22:33;93405.25;;;0.22;78.26
41690;BME280;27372;42.658;23.256;2023-04-06T06:24:58;93406.41;;;0.34;77.29
41690;BME280;27372;42.658;23.256;2023-04-06T06:27:24;93402.94;;;0.27;77.62
41690;BME280;27372;42.658;23.256;2023-04-06T06:29:49;93412.75;;;0.32;78.50
41690;BME280;27372;42.658;23.256;2023-04-06T06:32:15;93397.19;;;0.46;77.80
41690;BME280;27372;42.658;23.256;2023-04-06T06:34:40;93402.47;;;0.38;78.18
41690;BME280;27372;42.658;23.256;2023-04-06T06:37:06;93398.69;;;0.19;77.73
41690;BME280;27372;42.658;23.256;2023-04-06T06:39:31;93394.19;;;0.65;77.04
41690;BME280;27372;42.658;23.256;2023-04-06T06:41:57;93404.72;;;0.26;76.18
41690;BME280;27372;42.658;23.256;2023-04-06T06:44:25;93416.66;;;0.27;77.75
41690;BME280;27372;42.658;23.256;2023-04-06T06:46:51;93410.13;;;0.46;77.73
41690;BME280;27372;42.658;23.256;2023-04-06T06:49:16;93402.66;;;0.00;77.63
41690;BME280;27372;42.658;23.256;2023-04-06T06:51:42;93421.31;;;0.17;77.84
41690;BME280;27372;42.658;23.256;2023-04-06T06:54:07;93417.63;;;0.26;77.29
41690;BME280;27372;42.658;23.256;2023-04-06T06:56:33;93417.69;;;0.48;77.58
41690;BME280;27372;42.658;23.256;2023-04-06T06:59:00;93417.16;;;0.74;76.75
41690;BME280;27372;42.658;23.256;2023-04-06T07:01:26;93400.63;;;0.54;76.70
41690;BME280;27372;42.658;23.256;2023-04-06T07:03:51;93404.34;;;0.66;75.72
41690;BME280;27372;42.658;23.256;2023-04-06T07:06:17;93398.88;;;0.76;76.01
41690;BME280;27372;42.658;23.256;2023-04-06T07:08:42;93392.78;;;0.84;74.95
41690;BME280;27372;42.658;23.256;2023-04-06T07:11:08;93413.22;;;0.57;75.33
41690;BME280;27372;42.658;23.256;2023-04-06T07:13:33;93400.41;;;0.70;75.71
41690;BME280;27372;42.658;23.256;2023-04-06T07:15:58;93401.06;;;1.01;74.27
41690;BME280;27372;42.658;23.256;2023-04-06T07:18:25;93408.75;;;1.16;74.21
41690;BME280;27372;42.658;23.256;2023-04-06T07:20:50;93400.78;;;1.11;75.12
41690;BME280;27372;42.658;23.256;2023-04-06T07:23:16;93405.94;;;1.39;73.56
41690;BME280;27372;42.658;23.256;2023-04-06T07:25:41;93403.66;;;1.51;70.83
41690;BME280;27372;42.658;23.256;2023-04-06T07:28:07;93401.78;;;1.73;70.88
41690;BME280;27372;42.658;23.256;2023-04-06T07:30:32;93406.72;;;1.68;70.51
41690;BME280;27372;42.658;23.256;2023-04-06T07:32:58;93408.28;;;1.05;73.05
41690;BME280;27372;42.658;23.256;2023-04-06T07:35:26;93405.03;;;1.25;73.85
41690;BME280;27372;42.658;23.256;2023-04-06T07:37:53;93403.94;;;1.69;72.61
41690;BME280;27372;42.658;23.256;2023-04-06T07:40:19;93412.59;;;1.83;70.73
41690;BME280;27372;42.658;23.256;2023-04-06T07:42:45;93416.19;;;1.54;71.32
41690;BME280;27372;42.658;23.256;2023-04-06T07:45:11;93407.53;;;1.40;72.64
41690;BME280;27372;42.658;23.256;2023-04-06T07:47:36;93415.97;;;1.84;72.38
41690;BME280;27372;42.658;23.256;2023-04-06T07:50:02;93404.63;;;1.85;70.50
41690;BME280;27372;42.658;23.256;2023-04-06T07:52:27;93393.50;;;1.91;70.53
41690;BME280;27372;42.658;23.256;2023-04-06T07:54:53;93400.38;;;1.70;71.56
41690;BME280;27372;42.658;23.256;2023-04-06T07:57:18;93404.38;;;1.73;71.56
41690;BME280;27372;42.658;23.256;2023-04-06T07:59:44;93410.53;;;2.14;70.79
41690;BME280;27372;42.658;23.256;2023-04-06T08:02:09;93418.81;;;2.38;70.01
41690;BME280;27372;42.658;23.256;2023-04-06T08:04:35;93422.22;;;1.61;70.25
41690;BME280;27372;42.658;23.256;2023-04-06T08:07:00;93411.94;;;1.39;71.11
41690;BME280;27372;42.658;23.256;2023-04-06T08:09:26;93414.41;;;1.26;72.51
41690;BME280;27372;42.658;23.256;2023-04-06T08:11:52;93405.34;;;1.37;73.03
41690;BME280;27372;42.658;23.256;2023-04-06T08:14:17;93411.97;;;1.81;71.17
41690;BME280;27372;42.658;23.256;2023-04-06T08:16:43;93401.94;;;1.65;71.09
41690;BME280;27372;42.658;23.256;2023-04-06T08:19:08;93421.47;;;1.67;71.09
41690;BME280;27372;42.658;23.256;2023-04-06T08:21:35;93416.84;;;1.34;72.51
41690;BME280;27372;42.658;23.256;2023-04-06T08:24:01;93414.47;;;1.61;71.37
41690;BME280;27372;42.658;23.256;2023-04-06T08:26:27;93418.75;;;1.82;70.49
41690;BME280;27372;42.658;23.256;2023-04-06T08:28:53;93422.13;;;1.48;71.56
41690;BME280;27372;42.658;23.256;2023-04-06T08:31:18;93424.19;;;1.94;69.68
41690;BME280;27372;42.658;23.256;2023-04-06T08:33:44;93424.97;;;1.88;69.47
41690;BME280;27372;42.658;23.256;2023-04-06T08:36:11;93410.44;;;1.59;69.73
41690;BME280;27372;42.658;23.256;2023-04-06T08:38:37;93423.25;;;1.67;69.78
41690;BME280;27372;42.658;23.256;2023-04-06T08:41:10;93416.38;;;2.23;67.74
41690;BME280;27372;42.658;23.256;2023-04-06T08:43:57;93430.38;;;2.35;67.20
41690;BME280;27372;42.658;23.256;2023-04-06T08:46:23;93425.19;;;2.35;67.86
41690;BME280;27372;42.658;23.256;2023-04-06T08:48:55;93422.38;;;2.37;67.78
41690;BME280;27372;42.658;23.256;2023-04-06T08:51:25;93421.34;;;2.24;66.48
41690;BME280;27372;42.658;23.256;2023-04-06T08:53:53;93432.06;;;2.14;68.17
41690;BME280;27372;42.658;23.256;2023-04-06T08:56:21;93427.69;;;2.15;68.80
41690;BME280;27372;42.658;23.256;2023-04-06T08:58:47;93427.19;;;1.91;69.78
41690;BME280;27372;42.658;23.256;2023-04-06T09:01:14;93418.19;;;2.36;68.16
41690;BME280;27372;42.658;23.256;2023-04-06T09:03:42;93411.44;;;2.41;66.34
41690;BME280;27372;42.658;23.256;2023-04-06T09:06:09;93410.47;;;2.49;66.87
41690;BME280;27372;42.658;23.256;2023-04-06T09:08:35;93410.69;;;2.47;67.41
41690;BME280;27372;42.658;23.256;2023-04-06T09:11:02;93417.56;;;2.20;68.04
41690;BME280;27372;42.658;23.256;2023-04-06T09:13:28;93410.13;;;2.10;69.26
41690;BME280;27372;42.658;23.256;2023-04-06T09:16:04;93409.47;;;2.43;68.35
41690;BME280;27372;42.658;23.256;2023-04-06T09:18:32;93404.09;;;2.52;67.24
41690;BME280;27372;42.658;23.256;2023-04-06T09:21:02;93414.53;;;2.72;66.33
41690;BME280;27372;42.658;23.256;2023-04-06T09:23:28;93401.50;;;2.52;65.29
41690;BME280;27372;42.658;23.256;2023-04-06T09:26:13;93413.25;;;1.92;67.06
41690;BME280;27372;42.658;23.256;2023-04-06T09:31:13;93404.97;;;2.17;67.69
41690;BME280;27372;42.658;23.256;2023-04-06T09:33:41;93414.00;;;2.35;66.83
41690;BME280;27372;42.658;23.256;2023-04-06T09:36:07;93403.06;;;2.46;65.82
41690;BME280;27372;42.658;23.256;2023-04-06T09:38:50;93403.50;;;2.43;65.22
41690;BME280;27372;42.658;23.256;2023-04-06T09:41:27;93413.97;;;2.90;64.31
41690;BME280;27372;42.658;23.256;2023-04-06T09:44:07;93405.00;;;3.13;63.11
41690;BME280;27372;42.658;23.256;2023-04-06T09:46:34;93407.59;;;2.92;62.49
41690;BME280;27372;42.658;23.256;2023-04-06T09:49:02;93394.81;;;3.11;62.67
41690;BME280;27372;42.658;23.256;2023-04-06T09:51:30;93406.34;;;3.76;61.93
41690;BME280;27372;42.658;23.256;2023-04-06T09:53:56;93405.66;;;4.07;59.86
41690;BME280;27372;42.658;23.256;2023-04-06T09:56:28;93400.94;;;3.77;59.44
41690;BME280;27372;42.658;23.256;2023-04-06T09:58:57;93406.94;;;3.91;59.37
41690;BME280;27372;42.658;23.256;2023-04-06T10:01:29;93408.06;;;4.15;58.18
41690;BME280;27372;42.658;23.256;2023-04-06T10:06:27;93401.31;;;4.01;59.30
41690;BME280;27372;42.658;23.256;2023-04-06T10:08:55;93396.28;;;5.48;55.05
41690;BME280;27372;42.658;23.256;2023-04-06T10:11:22;93398.84;;;4.65;55.40
41690;BME280;27372;42.658;23.256;2023-04-06T10:13:48;93403.16;;;4.39;56.82
41690;BME280;27372;42.658;23.256;2023-04-06T10:16:14;93401.38;;;3.81;57.19
41690;BME280;27372;42.658;23.256;2023-04-06T10:18:46;93395.25;;;4.66;55.85
41690;BME280;27372;42.658;23.256;2023-04-06T10:21:20;93392.59;;;5.05;55.10
41690;BME280;27372;42.658;23.256;2023-04-06T10:23:48;93373.78;;;6.16;51.77
41690;BME280;27372;42.658;23.256;2023-04-06T10:26:19;93377.66;;;5.88;51.41
41690;BME280;27372;42.658;23.256;2023-04-06T10:28:47;93380.41;;;5.74;51.89
41690;BME280;27372;42.658;23.256;2023-04-06T10:31:14;93369.78;;;5.95;51.45
41690;BME280;27372;42.658;23.256;2023-04-06T10:33:40;93381.47;;;5.85;51.15
41690;BME280;27372;42.658;23.256;2023-04-06T10:36:13;93370.19;;;6.47;49.94
41690;BME280;27372;42.658;23.256;2023-04-06T10:38:40;93356.53;;;5.08;51.36
41690;BME280;27372;42.658;23.256;2023-04-06T10:41:08;93359.03;;;5.22;54.49
41690;BME280;27372;42.658;23.256;2023-04-06T10:43:35;93349.69;;;6.32;52.18
41690;BME280;27372;42.658;23.256;2023-04-06T10:46:01;93359.94;;;6.64;51.45
41690;BME280;27372;42.658;23.256;2023-04-06T10:48:37;93368.94;;;6.19;52.31
41690;BME280;27372;42.658;23.256;2023-04-06T10:51:11;93359.72;;;5.80;52.05
41690;BME280;27372;42.658;23.256;2023-04-06T10:53:37;93363.00;;;4.99;53.07
41690;BME280;27372;42.658;23.256;2023-04-06T10:56:04;93385.28;;;5.46;52.04
41690;BME280;27372;42.658;23.256;2023-04-06T10:58:35;93367.00;;;5.52;52.37
41690;BME280;27372;42.658;23.256;2023-04-06T11:01:00;93365.72;;;5.80;52.76
41690;BME280;27372;42.658;23.256;2023-04-06T11:03:26;93358.78;;;5.74;52.89
41690;BME280;27372;42.658;23.256;2023-04-06T11:05:52;93352.75;;;5.29;52.63
41690;BME280;27372;42.658;23.256;2023-04-06T11:08:31;93353.34;;;4.42;56.02
41690;BME280;27372;42.658;23.256;2023-04-06T11:11:08;93336.72;;;5.07;53.84
41690;BME280;27372;42.658;23.256;2023-04-06T11:14:03;93348.09;;;6.01;52.92
41690;BME280;27372;42.658;23.256;2023-04-06T11:16:32;93351.22;;;5.66;54.65
41690;BME280;27372;42.658;23.256;2023-04-06T11:19:00;93345.88;;;5.98;53.89
41690;BME280;27372;42.658;23.256;2023-04-06T11:24:10;93338.75;;;6.42;52.87
41690;BME280;27372;42.658;23.256;2023-04-06T11:26:37;93334.44;;;5.99;52.64
41690;BME280;27372;42.658;23.256;2023-04-06T11:29:04;93341.06;;;5.57;54.44
41690;BME280;27372;42.658;23.256;2023-04-06T11:31:29;93335.63;;;5.84;54.60
41690;BME280;27372;42.658;23.256;2023-04-06T11:33:57;93339.00;;;5.85;53.11
41690;BME280;27372;42.658;23.256;2023-04-06T11:36:23;93337.00;;;6.05;52.73
41690;BME280;27372;42.658;23.256;2023-04-06T11:38:49;93334.13;;;5.51;53.43
41690;BME280;27372;42.658;23.256;2023-04-06T11:41:14;93334.72;;;5.53;54.15
41690;BME280;27372;42.658;23.256;2023-04-06T11:43:46;93339.41;;;5.63;52.49
41690;BME280;27372;42.658;23.256;2023-04-06T11:46:17;93341.78;;;5.46;52.24
41690;BME280;27372;42.658;23.256;2023-04-06T11:48:44;93333.16;;;5.27;53.09
41690;BME280;27372;42.658;23.256;2023-04-06T11:51:09;93332.03;;;4.59;54.25
41690;BME280;27372;42.658;23.256;2023-04-06T11:53:44;93324.66;;;4.56;55.39
41690;BME280;27372;42.658;23.256;2023-04-06T11:56:10;93329.63;;;4.25;55.55
41690;BME280;27372;42.658;23.256;2023-04-06T11:58:36;93318.56;;;4.37;56.03
41690;BME280;27372;42.658;23.256;2023-04-06T12:01:05;93320.69;;;4.14;56.14
41690;BME280;27372;42.658;23.256;2023-04-06T12:03:30;93318.03;;;4.60;55.18
41690;BME280;27372;42.658;23.256;2023-04-06T12:05:56;93324.06;;;4.54;55.70
41690;BME280;27372;42.658;23.256;2023-04-06T12:08:21;93333.28;;;4.49;56.13
41690;BME280;27372;42.658;23.256;2023-04-06T12:10:50;93329.81;;;4.30;57.07
41690;BME280;27372;42.658;23.256;2023-04-06T12:13:16;93328.09;;;4.11;56.53
41690;BME280;27372;42.658;23.256;2023-04-06T12:15:41;93319.06;;;4.20;55.88
41690;BME280;27372;42.658;23.256;2023-04-06T12:18:06;93315.31;;;4.02;56.56
41690;BME280;27372;42.658;23.256;2023-04-06T12:20:32;93318.47;;;4.18;56.02
41690;BME280;27372;42.658;23.256;2023-04-06T12:22:57;93322.72;;;4.06;55.43
41690;BME280;27372;42.658;23.256;2023-04-06T12:25:23;93317.88;;;4.16;55.71
41690;BME280;27372;42.658;23.256;2023-04-06T12:27:48;93330.59;;;4.31;55.26
41690;BME280;27372;42.658;23.256;2023-04-06T12:30:14;93320.94;;;4.38;55.20
41690;BME280;27372;42.658;23.256;2023-04-06T12:32:40;93317.78;;;4.36;55.89
41690;BME280;27372;42.658;23.256;2023-04-06T12:35:06;93321.50;;;4.47;56.56
41690;BME280;27372;42.658;23.256;2023-04-06T12:37:34;93328.13;;;4.43;55.35
41690;BME280;27372;42.658;23.256;2023-04-06T12:39:59;93324.63;;;4.30;56.60
41690;BME280;27372;42.658;23.256;2023-04-06T12:42:25;93315.78;;;3.93;56.93
41690;BME280;27372;42.658;23.256;2023-04-06T12:44:51;93323.25;;;3.69;56.18
41690;BME280;27372;42.658;23.256;2023-04-06T12:47:17;93313.47;;;3.71;56.66
41690;BME280;27372;42.658;23.256;2023-04-06T12:49:43;93313.59;;;3.89;57.42
41690;BME280;27372;42.658;23.256;2023-04-06T12:52:09;93299.69;;;3.64;58.00
41690;BME280;27372;42.658;23.256;2023-04-06T12:54:34;93309.06;;;4.17;57.06
41690;BME280;27372;42.658;23.256;2023-04-06T12:57:00;93311.44;;;4.25;56.32
41690;BME280;27372;42.658;23.256;2023-04-06T12:59:26;93307.19;;;4.31;54.79